Time;durP1;ratioP1;P1;durP2;ratioP2;P2;SDS_P1;SDS_P2;PMS_P1;PMS_P2;Temp;Humidity;BMP_temperature;BMP_pressure;BME280_temperature;BME280_humidity;BME280_pressure;Samples;Min_cycle;Max_cycle;Signal;HPM_P1;HPM_P2
2021/04/06 00:02:19;;;;;;;7.93;2.13;;;1.60;94.00;;;;;;5085363;28;20048;-36
2021/04/06 00:04:54;;;;;;;6.68;1.88;;;1.70;93.80;;;;;;5084335;28;20112;-36
2021/04/06 00:07:27;;;;;;;8.25;1.55;;;1.70;93.70;;;;;;5086625;28;20128;-35
2021/04/06 00:10:02;;;;;;;4.95;1.10;;;1.70;93.50;;;;;;5086952;28;20515;-36
2021/04/06 00:12:35;;;;;;;6.72;1.13;;;1.70;93.30;;;;;;5084963;28;20727;-35
2021/04/06 00:15:05;;;;;;;6.25;1.05;;;1.70;93.60;;;;;;5086482;28;20465;-36
2021/04/06 00:17:38;;;;;;;3.78;0.98;;;1.70;93.30;;;;;;5086224;28;20052;-37
2021/04/06 00:20:12;;;;;;;4.10;1.30;;;1.60;93.50;;;;;;5086770;28;20498;-37
2021/04/06 00:22:46;;;;;;;3.75;1.20;;;1.60;93.80;;;;;;5086504;28;20068;-36
2021/04/06 00:25:21;;;;;;;4.45;1.35;;;1.60;93.90;;;;;;5088992;28;20142;-36
2021/04/06 00:27:54;;;;;;;9.80;1.27;;;1.60;93.90;;;;;;5085143;28;20124;-38
2021/04/06 00:30:31;;;;;;;8.00;1.45;;;1.50;94.10;;;;;;5087392;28;20075;-37
2021/04/06 00:33:09;;;;;;;3.55;1.25;;;1.50;94.30;;;;;;5086541;28;20044;-38
2021/04/06 00:35:36;;;;;;;6.63;1.70;;;1.40;94.60;;;;;;5081820;28;20492;-37
2021/04/06 00:38:09;;;;;;;5.72;1.45;;;1.40;95.10;;;;;;5085891;28;20389;-37
2021/04/06 00:40:41;;;;;;;8.55;1.67;;;1.30;94.90;;;;;;5085790;28;20535;-38
2021/04/06 00:43:10;;;;;;;6.53;1.92;;;1.30;95.00;;;;;;5086520;28;20107;-37
2021/04/06 00:45:45;;;;;;;7.63;1.70;;;1.20;95.00;;;;;;5085719;28;20072;-37
2021/04/06 00:48:23;;;;;;;9.02;2.33;;;1.30;95.40;;;;;;5085530;28;20071;-38
2021/04/06 00:51:09;;;;;;;6.88;2.22;;;1.30;95.60;;;;;;5086337;28;20093;-38
2021/04/06 00:54:11;;;;;;;13.75;1.60;;;1.30;95.60;;;;;;5086361;28;20052;-38
2021/04/06 00:56:45;;;;;;;9.18;2.00;;;1.30;95.60;;;;;;5083122;28;20120;-37
2021/04/06 00:59:22;;;;;;;;;;;1.30;95.50;;;;;;5084189;28;20075;-37
2021/04/06 01:02:07;;;;;;;11.45;1.83;;;1.30;95.50;;;;;;5094874;28;19931;-37
2021/04/06 01:04:38;;;;;;;10.55;1.80;;;1.20;95.50;;;;;;5094536;28;20044;-37
2021/04/06 01:07:17;;;;;;;7.13;1.50;;;1.10;95.50;;;;;;5086089;28;20048;-38
2021/04/06 01:09:49;;;;;;;6.35;1.75;;;1.10;95.50;;;;;;5086902;28;20052;-38
2021/04/06 01:12:28;;;;;;;8.75;1.70;;;1.00;95.70;;;;;;5085054;28;20052;-38
2021/04/06 01:14:55;;;;;;;13.13;1.90;;;1.00;95.70;;;;;;5084225;28;20056;-37
2021/04/06 01:17:29;;;;;;;8.05;1.88;;;1.00;96.00;;;;;;5086115;28;20048;-38
2021/04/06 01:20:18;;;;;;;9.70;1.95;;;1.00;96.20;;;;;;5086050;28;20132;-38
2021/04/06 01:22:48;;;;;;;12.05;2.63;;;1.00;96.40;;;;;;5086991;28;20086;-37
2021/04/06 01:25:25;;;;;;;15.00;3.03;;;1.00;96.60;;;;;;5086443;28;20044;-37
2021/04/06 01:28:11;;;;;;;12.73;2.42;;;1.10;96.60;;;;;;5086724;28;20044;-37
2021/04/06 01:30:47;;;;;;;10.43;2.22;;;1.10;96.60;;;;;;5086398;28;20044;-37
2021/04/06 01:33:18;;;;;;;14.43;3.00;;;1.20;96.50;;;;;;5086907;28;20059;-37
2021/04/06 01:35:54;;;;;;;10.52;2.40;;;1.20;96.50;;;;;;5092176;28;20502;-38
2021/04/06 01:38:26;;;;;;;18.05;2.95;;;1.20;96.40;;;;;;5088515;28;20563;-38
2021/04/06 01:40:55;;;;;;;9.27;2.15;;;1.20;96.40;;;;;;5088814;28;20079;-37
2021/04/06 01:43:31;;;;;;;15.05;2.83;;;1.20;96.30;;;;;;5088928;28;20055;-38
2021/04/06 01:46:14;;;;;;;17.05;2.60;;;1.20;96.30;;;;;;5086839;28;20075;-38
2021/04/06 01:48:40;;;;;;;15.05;2.92;;;1.20;96.20;;;;;;5087485;28;20044;-37
2021/04/06 01:51:09;;;;;;;11.13;2.60;;;1.20;96.30;;;;;;5089219;28;20083;-38
2021/04/06 01:53:41;;;;;;;16.60;2.47;;;1.10;96.20;;;;;;5089676;28;20052;-38
2021/04/06 01:56:13;;;;;;;14.35;3.20;;;1.20;96.20;;;;;;5089027;28;20542;-38
2021/04/06 01:58:58;;;;;;;13.65;2.58;;;1.20;96.30;;;;;;5088996;28;20407;-38
2021/04/06 02:01:31;;;;;;;13.48;3.67;;;1.20;96.30;;;;;;5088704;28;20449;-38
2021/04/06 02:04:05;;;;;;;19.40;2.95;;;1.20;96.30;;;;;;5088956;28;20048;-38
2021/04/06 02:06:34;;;;;;;12.05;2.65;;;1.30;96.20;;;;;;5087788;28;20048;-38
2021/04/06 02:09:14;;;;;;;11.82;2.40;;;1.30;96.10;;;;;;5092495;28;20064;-38
2021/04/06 02:11:49;;;;;;;12.98;3.22;;;1.20;96.00;;;;;;5086959;28;20040;-38
2021/04/06 02:14:23;;;;;;;11.27;2.47;;;1.10;96.00;;;;;;5088434;28;20056;-38
2021/04/06 02:17:00;;;;;;;14.85;2.65;;;1.10;95.90;;;;;;5087099;28;20527;-38
2021/04/06 02:19:34;;;;;;;15.25;2.88;;;1.00;95.90;;;;;;5088404;28;20036;-38
2021/04/06 02:22:09;;;;;;;15.65;2.97;;;1.00;95.80;;;;;;5089116;28;20056;-39
2021/04/06 02:24:35;;;;;;;9.23;2.42;;;0.90;95.90;;;;;;5088790;28;20054;-38
2021/04/06 02:27:08;;;;;;;10.00;2.75;;;0.90;95.80;;;;;;5087869;28;20044;-38
2021/04/06 02:29:46;;;;;;;15.02;2.60;;;0.80;95.80;;;;;;5089619;28;20035;-38
2021/04/06 02:32:18;;;;;;;14.13;2.65;;;0.80;95.80;;;;;;5083484;28;20051;-38
2021/04/06 02:34:54;;;;;;;11.23;2.70;;;0.80;95.60;;;;;;5084566;28;20052;-38
2021/04/06 02:37:31;;;;;;;16.70;2.55;;;0.70;95.90;;;;;;5086583;28;20044;-38
2021/04/06 02:40:12;;;;;;;15.13;3.17;;;0.70;96.00;;;;;;5087539;28;20659;-38
2021/04/06 02:42:43;;;;;;;8.98;2.65;;;0.70;96.00;;;;;;5094926;28;20050;-38
2021/04/06 02:45:16;;;;;;;10.27;2.30;;;0.70;95.90;;;;;;5089025;28;20046;-38
2021/04/06 02:47:48;;;;;;;13.20;2.63;;;0.60;95.90;;;;;;5086676;28;20052;-38
2021/04/06 02:50:18;;;;;;;;;;;0.70;95.90;;;;;;5091651;28;20120;-38
2021/04/06 02:52:57;;;;;;;12.55;2.53;;;0.70;96.00;;;;;;5085334;28;19924;-38
2021/04/06 02:55:31;;;;;;;13.55;2.92;;;0.70;96.00;;;;;;5086930;28;20044;-39
2021/04/06 02:57:59;;;;;;;12.18;2.42;;;0.70;95.90;;;;;;5086142;28;20062;-38
2021/04/06 03:00:32;;;;;;;12.77;2.50;;;0.70;95.90;;;;;;5086079;28;20060;-38
2021/04/06 03:03:21;;;;;;;12.13;2.97;;;0.60;95.70;;;;;;5088854;28;20044;-38
2021/04/06 03:06:05;;;;;;;15.95;3.47;;;0.70;95.80;;;;;;5086417;28;20063;-38
2021/04/06 03:08:41;;;;;;;16.42;3.22;;;0.70;95.70;;;;;;5084812;28;20757;-39
2021/04/06 03:11:15;;;;;;;16.35;3.00;;;0.70;95.80;;;;;;5087035;28;20098;-39
2021/04/06 03:13:49;;;;;;;19.05;3.58;;;0.70;95.90;;;;;;5087897;28;20419;-39
2021/04/06 03:16:21;;;;;;;15.82;4.28;;;0.80;96.00;;;;;;5087423;28;20097;-38
2021/04/06 03:18:47;;;;;;;15.48;3.13;;;0.70;95.90;;;;;;5086802;28;20135;-38
2021/04/06 03:21:25;;;;;;;12.73;3.50;;;0.70;95.70;;;;;;5087081;28;20125;-39
2021/04/06 03:23:52;;;;;;;16.58;3.03;;;0.70;95.60;;;;;;5089582;28;20044;-39
2021/04/06 03:26:27;;;;;;;15.38;3.10;;;0.70;95.50;;;;;;5092997;28;20067;-39
2021/04/06 03:28:59;;;;;;;14.50;3.38;;;0.70;95.30;;;;;;5086310;28;20044;-39
2021/04/06 03:31:33;;;;;;;16.50;3.80;;;0.70;95.10;;;;;;5085567;28;20051;-39
2021/04/06 03:34:08;;;;;;;23.60;4.43;;;0.70;95.00;;;;;;5085787;28;20054;-39
2021/04/06 03:36:45;;;;;;;16.88;3.58;;;0.80;95.00;;;;;;5086690;28;20044;-39
2021/04/06 03:39:16;;;;;;;21.90;3.88;;;0.80;95.00;;;;;;5085935;28;20055;-39
2021/04/06 03:41:45;;;;;;;22.02;4.43;;;0.90;94.70;;;;;;5087419;28;20071;-39
2021/04/06 03:44:27;;;;;;;16.20;3.85;;;0.90;94.60;;;;;;5085649;28;20174;-38
2021/04/06 03:47:06;;;;;;;21.40;3.60;;;1.00;94.50;;;;;;5087132;28;20056;-38
2021/04/06 03:49:48;;;;;;;21.50;4.07;;;1.00;94.40;;;;;;5084267;28;20048;-39
2021/04/06 03:52:19;;;;;;;18.65;4.20;;;1.10;94.40;;;;;;5087082;28;20047;-39
2021/04/06 03:54:51;;;;;;;20.30;3.83;;;1.00;94.20;;;;;;5086248;28;20048;-39
2021/04/06 03:57:47;;;;;;;20.17;4.15;;;1.00;94.20;;;;;;5085692;28;20105;-39
2021/04/06 04:00:21;;;;;;;25.08;5.20;;;0.90;94.10;;;;;;5084645;28;20488;-39
2021/04/06 04:02:57;;;;;;;23.58;5.72;;;0.90;94.20;;;;;;5086329;28;20036;-39
2021/04/06 04:05:31;;;;;;;25.55;5.35;;;0.90;94.50;;;;;;5086725;28;20382;-39
2021/04/06 04:08:02;;;;;;;20.83;4.13;;;1.00;94.50;;;;;;5086883;28;20042;-39
2021/04/06 04:10:36;;;;;;;24.27;4.45;;;1.00;94.70;;;;;;5086089;28;20058;-38
2021/04/06 04:13:05;;;;;;;25.33;5.15;;;1.10;94.50;;;;;;5085909;28;20130;-39
2021/04/06 04:15:35;;;;;;;27.40;5.32;;;1.10;94.40;;;;;;5091952;28;20044;-39
2021/04/06 04:18:07;;;;;;;21.85;5.22;;;1.10;94.20;;;;;;5086016;28;20063;-39
2021/04/06 04:20:38;;;;;;;26.30;5.30;;;1.10;94.10;;;;;;5084397;28;20064;-39
2021/04/06 04:23:06;;;;;;;23.77;5.25;;;1.10;94.10;;;;;;5086281;28;20581;-39
2021/04/06 04:25:38;;;;;;;19.45;5.78;;;1.10;94.10;;;;;;5084439;28;20044;-39
2021/04/06 04:28:10;;;;;;;20.05;5.10;;;1.20;94.10;;;;;;5086533;28;20062;-39
2021/04/06 04:30:49;;;;;;;19.40;3.60;;;1.30;93.60;;;;;;5083766;28;20056;-39
2021/04/06 04:33:24;;;;;;;17.98;3.33;;;1.40;92.80;;;;;;5085687;28;20048;-39
2021/04/06 04:35:49;;;;;;;12.20;3.05;;;1.40;92.90;;;;;;5090931;28;20043;-39
2021/04/06 04:38:25;;;;;;;13.82;2.90;;;1.40;92.60;;;;;;5089679;28;20055;-39
2021/04/06 04:40:59;;;;;;;17.00;2.80;;;1.40;91.90;;;;;;5088935;28;20044;-39
2021/04/06 04:43:30;;;;;;;12.98;2.28;;;1.30;92.00;;;;;;5087986;28;20317;-39
2021/04/06 04:45:59;;;;;;;18.38;3.35;;;1.30;91.70;;;;;;5090518;28;20071;-39
2021/04/06 04:48:28;;;;;;;13.75;2.83;;;1.20;91.90;;;;;;5096801;28;20048;-39
2021/04/06 04:50:58;;;;;;;9.80;2.58;;;1.20;91.50;;;;;;5090566;28;20083;-39
2021/04/06 04:53:29;;;;;;;11.02;2.40;;;1.20;91.70;;;;;;5089905;28;20058;-39
2021/04/06 04:56:02;;;;;;;15.47;2.73;;;1.10;91.90;;;;;;5088017;28;20055;-39
2021/04/06 04:58:34;;;;;;;9.70;2.92;;;1.10;91.80;;;;;;5094210;28;20469;-40
2021/04/06 05:01:02;;;;;;;10.20;2.17;;;1.00;91.90;;;;;;5087713;28;20052;-38
2021/04/06 05:03:33;;;;;;;12.00;2.63;;;1.00;91.90;;;;;;5091165;28;20070;-38
2021/04/06 05:06:04;;;;;;;8.07;1.60;;;1.00;91.70;;;;;;5090295;28;20082;-38
2021/04/06 05:08:35;;;;;;;11.88;2.55;;;0.90;91.70;;;;;;5082509;28;20052;-41
2021/04/06 05:11:09;;;;;;;11.10;2.38;;;1.00;91.70;;;;;;5088014;28;20411;-38
2021/04/06 05:13:35;;;;;;;12.65;3.53;;;1.10;91.60;;;;;;5090787;28;20051;-38
2021/04/06 05:16:14;;;;;;;15.80;3.03;;;1.10;91.50;;;;;;5090146;28;20051;-41
2021/04/06 05:18:46;;;;;;;17.08;3.85;;;1.10;91.10;;;;;;5088289;28;20499;-41
2021/04/06 05:21:22;;;;;;;9.67;2.13;;;1.10;90.80;;;;;;5087523;28;20058;-43
2021/04/06 05:23:58;;;;;;;11.77;2.13;;;1.10;90.80;;;;;;5089494;28;20318;-40
2021/04/06 05:26:26;;;;;;;12.90;3.67;;;1.10;90.50;;;;;;5117208;27;20518;-41
2021/04/06 05:28:57;;;;;;;13.13;2.50;;;1.10;90.40;;;;;;5088284;28;20105;-39
2021/04/06 05:31:23;;;;;;;10.05;2.58;;;1.10;90.60;;;;;;5090253;28;20048;-41
2021/04/06 05:33:54;;;;;;;15.07;4.75;;;1.10;90.50;;;;;;5089808;28;20052;-40
2021/04/06 05:36:20;;;;;;;15.52;2.55;;;1.30;91.00;;;;;;5090441;28;20155;-40
2021/04/06 05:38:46;;;;;;;14.73;2.80;;;1.30;90.10;;;;;;5089192;28;20075;-40
2021/04/06 05:41:13;;;;;;;13.10;3.35;;;1.40;90.10;;;;;;5087929;28;20134;-40
2021/04/06 05:43:40;;;;;;;12.38;2.63;;;1.40;89.50;;;;;;5086780;28;20048;-40
2021/04/06 05:46:11;;;;;;;13.68;6.10;;;1.40;89.30;;;;;;5083474;28;20574;-40
2021/04/06 05:48:37;;;;;;;23.42;11.27;;;1.40;89.70;;;;;;5084018;28;20047;-39
2021/04/06 05:51:04;;;;;;;10.48;2.67;;;1.50;88.60;;;;;;5081599;28;20043;-40
2021/04/06 05:53:33;;;;;;;17.67;6.35;;;1.50;88.60;;;;;;5082580;28;20232;-38
2021/04/06 05:56:04;;;;;;;9.65;2.92;;;1.70;88.70;;;;;;5088504;28;20056;-39
2021/04/06 05:58:30;;;;;;;13.27;4.38;;;1.80;87.70;;;;;;5072599;28;20102;-41
2021/04/06 06:01:03;;;;;;;12.43;2.70;;;2.00;87.70;;;;;;5084960;28;20044;-39
2021/04/06 06:03:32;;;;;;;9.27;2.40;;;2.20;86.90;;;;;;5082554;28;20472;-39
2021/04/06 06:06:08;;;;;;;20.63;10.95;;;2.40;84.40;;;;;;5075159;28;20485;-38
2021/04/06 06:08:58;;;;;;;11.50;4.15;;;2.20;86.10;;;;;;5089177;28;20080;-38
2021/04/06 06:11:29;;;;;;;8.57;2.38;;;1.90;87.70;;;;;;5076737;28;20052;-38
2021/04/06 06:14:00;;;;;;;9.77;2.80;;;1.70;89.50;;;;;;5081134;28;20405;-38
2021/04/06 06:16:41;;;;;;;7.18;1.40;;;1.50;89.60;;;;;;5081089;28;20306;-38
2021/04/06 06:19:10;;;;;;;7.50;2.00;;;1.50;90.60;;;;;;5085235;28;20522;-36
2021/04/06 06:21:48;;;;;;;6.05;2.25;;;1.50;90.40;;;;;;5085484;28;20040;-36
2021/04/06 06:24:33;;;;;;;6.78;2.00;;;1.50;90.60;;;;;;5087656;28;20496;-37
2021/04/06 06:27:39;;;;;;;7.65;1.58;;;1.50;90.80;;;;;;5088302;28;20056;-37
2021/04/06 06:33:24;;;;;;;7.10;2.20;;;1.80;90.50;;;;;;5088382;28;20054;-37
2021/04/06 06:35:55;;;;;;;7.70;1.75;;;1.90;89.60;;;;;;5086547;28;20048;-37
2021/04/06 06:38:29;;;;;;;7.43;2.00;;;1.80;89.70;;;;;;5094921;28;20077;-37
2021/04/06 06:41:09;;;;;;;12.73;5.32;;;1.80;90.00;;;;;;5085194;28;20059;-37
2021/04/06 06:43:36;;;;;;;7.60;2.13;;;2.20;90.60;;;;;;5089707;28;20074;-38
2021/04/06 06:46:02;;;;;;;9.38;3.47;;;2.30;89.30;;;;;;5091242;28;20044;-37
2021/04/06 06:48:33;;;;;;;8.57;2.40;;;2.50;90.00;;;;;;5089341;28;20047;-37
2021/04/06 06:51:01;;;;;;;8.93;2.20;;;2.60;88.80;;;;;;5088296;28;20052;-37
2021/04/06 06:53:39;;;;;;;12.35;4.10;;;2.80;88.50;;;;;;5089820;28;20048;-37
2021/04/06 06:56:15;;;;;;;10.75;2.70;;;3.20;89.30;;;;;;5089691;28;20059;-37
2021/04/06 06:58:48;;;;;;;10.13;4.05;;;3.40;87.70;;;;;;5068904;28;20098;-38
2021/04/06 07:01:32;;;;;;;8.18;2.05;;;3.60;87.80;;;;;;5067611;28;20056;-38
2021/04/06 07:04:06;;;;;;;7.97;2.13;;;3.50;87.00;;;;;;5079955;28;20096;-37
2021/04/06 07:06:44;;;;;;;10.13;3.25;;;3.10;86.40;;;;;;5088460;28;20060;-37
2021/04/06 07:09:43;;;;;;;8.65;2.25;;;2.80;88.80;;;;;;5087706;28;20457;-37
2021/04/06 07:12:12;;;;;;;8.85;2.25;;;2.10;90.80;;;;;;5070162;28;20052;-37
2021/04/06 07:14:48;;;;;;;7.05;2.40;;;2.00;91.90;;;;;;5059047;28;20063;-37
2021/04/06 07:17:15;;;;;;;24.80;15.30;;;1.90;92.40;;;;;;5045137;28;20520;-37
2021/04/06 07:19:46;;;;;;;12.70;4.63;;;1.80;92.80;;;;;;5057544;28;20523;-36
2021/04/06 07:22:14;;;;;;;10.00;3.08;;;1.70;93.10;;;;;;5047676;28;20882;-36
2021/04/06 07:24:48;;;;;;;10.43;2.80;;;1.70;93.30;;;;;;5063163;28;20053;-37
2021/04/06 07:27:20;;;;;;;11.25;2.90;;;1.70;93.20;;;;;;5063745;28;20136;-37
2021/04/06 07:29:58;;;;;;;13.25;2.78;;;1.70;93.20;;;;;;5064039;28;20052;-36
2021/04/06 07:32:31;;;;;;;8.30;2.35;;;1.70;93.30;;;;;;5048691;28;20052;-36
2021/04/06 07:35:03;;;;;;;9.45;2.60;;;1.60;93.50;;;;;;5056636;28;20044;-36
2021/04/06 07:37:30;;;;;;;7.22;2.30;;;1.60;93.60;;;;;;5063425;28;20052;-37
2021/04/06 07:40:02;;;;;;;12.20;2.63;;;1.70;93.60;;;;;;5063313;28;20082;-36
2021/04/06 07:42:31;;;;;;;11.15;2.92;;;1.70;93.40;;;;;;5063156;28;20053;-37
2021/04/06 07:44:57;;;;;;;13.75;5.13;;;1.80;93.30;;;;;;5064433;28;20060;-37
2021/04/06 07:47:38;;;;;;;9.40;2.95;;;1.80;93.10;;;;;;5064802;28;20052;-36
2021/04/06 07:50:13;;;;;;;10.00;2.75;;;2.00;93.00;;;;;;5085790;28;20055;-36
2021/04/06 07:52:39;;;;;;;12.48;3.90;;;2.20;93.10;;;;;;5086588;28;20579;-36
2021/04/06 07:55:13;;;;;;;11.30;3.15;;;2.50;92.30;;;;;;5086536;28;20055;-37
2021/04/06 07:57:44;;;;;;;7.75;2.75;;;2.60;91.80;;;;;;5077048;28;20054;-37
2021/04/06 08:00:11;;;;;;;6.07;2.78;;;2.90;91.20;;;;;;5086124;28;20133;-37
2021/04/06 08:02:44;;;;;;;9.25;2.72;;;3.00;91.20;;;;;;5084873;28;20047;-37
2021/04/06 08:05:18;;;;;;;11.38;2.53;;;3.10;90.90;;;;;;5082206;28;20152;-37
2021/04/06 08:07:48;;;;;;;7.75;2.10;;;3.20;90.90;;;;;;5081752;28;20078;-37
2021/04/06 08:10:23;;;;;;;6.97;1.75;;;3.10;90.40;;;;;;5085948;28;20140;-37
2021/04/06 08:12:49;;;;;;;7.78;2.45;;;3.10;90.60;;;;;;5088390;28;20644;-37
2021/04/06 08:15:20;;;;;;;7.63;2.13;;;3.00;90.20;;;;;;5086834;28;20645;-37
2021/04/06 08:18:03;;;;;;;23.75;11.23;;;2.80;90.40;;;;;;5083991;28;20453;-37
2021/04/06 08:20:45;;;;;;;9.52;3.30;;;2.90;90.20;;;;;;5083334;28;20057;-37
2021/04/06 08:23:40;;;;;;;14.05;5.82;;;3.30;90.10;;;;;;5086732;28;20512;-38
2021/04/06 08:26:30;;;;;;;9.73;2.83;;;4.20;89.50;;;;;;5074451;28;20055;-38
2021/04/06 08:29:23;;;;;;;9.18;2.92;;;4.50;84.40;;;;;;5083082;28;20060;-37
2021/04/06 08:32:13;;;;;;;7.57;2.25;;;4.80;84.00;;;;;;5076323;28;20051;-37
2021/04/06 08:34:50;;;;;;;6.05;1.85;;;4.90;82.70;;;;;;5043479;28;20087;-37
2021/04/06 08:37:37;;;;;;;10.23;2.60;;;4.40;82.40;;;;;;5042669;28;20053;-37
2021/04/06 08:40:32;;;;;;;6.38;1.48;;;3.60;84.00;;;;;;5041968;28;20076;-37
2021/04/06 08:42:58;;;;;;;7.35;2.15;;;3.00;88.30;;;;;;5042222;28;20131;-37
2021/04/06 08:45:32;;;;;;;8.00;2.33;;;2.50;90.50;;;;;;5040935;28;20169;-37
2021/04/06 08:48:07;;;;;;;9.57;2.15;;;2.40;91.40;;;;;;5040128;28;20037;-37
2021/04/06 08:50:50;;;;;;;8.35;3.10;;;2.30;92.00;;;;;;5041674;28;20122;-37
2021/04/06 08:53:27;;;;;;;5.60;2.50;;;2.40;92.00;;;;;;5040789;28;20064;-37
2021/04/06 08:56:13;;;;;;;6.18;2.30;;;2.40;92.30;;;;;;5027834;28;20045;-39
2021/04/06 08:58:42;;;;;;;8.52;3.95;;;2.40;92.40;;;;;;5042288;28;20135;-38
2021/04/06 09:01:11;;;;;;;16.67;8.18;;;2.50;92.70;;;;;;5044409;28;20090;-39
2021/04/06 09:03:40;;;;;;;8.23;2.38;;;3.00;92.80;;;;;;5041537;28;20045;-40
2021/04/06 09:06:28;;;;;;;7.18;2.88;;;3.60;91.50;;;;;;5042602;28;20069;-40
2021/04/06 09:08:58;;;;;;;9.82;2.90;;;4.10;91.10;;;;;;5040155;28;20119;-41
2021/04/06 09:11:25;;;;;;;7.80;2.80;;;4.30;90.20;;;;;;5050777;28;20051;-40
2021/04/06 09:13:53;;;;;;;9.23;2.45;;;4.00;87.60;;;;;;5082410;28;20059;-40
2021/04/06 09:16:30;;;;;;;7.30;2.42;;;3.80;88.50;;;;;;5085225;28;20449;-40
2021/04/06 09:19:15;;;;;;;6.22;1.92;;;3.50;87.80;;;;;;5066952;28;20593;-39
2021/04/06 09:22:05;;;;;;;10.90;2.15;;;3.40;87.80;;;;;;5112729;27;20056;-39
2021/04/06 09:24:34;;;;;;;144.40;105.45;;;3.60;87.70;;;;;;5089637;28;20044;-40
2021/04/06 09:27:03;;;;;;;12.18;3.28;;;4.50;88.20;;;;;;5084765;28;20067;-39
2021/04/06 09:29:42;;;;;;;7.82;1.95;;;4.70;85.90;;;;;;5089341;28;20048;-39
2021/04/06 09:32:18;;;;;;;15.05;6.40;;;4.70;84.40;;;;;;5088525;28;20154;-40
2021/04/06 09:34:50;;;;;;;7.38;2.08;;;4.70;87.10;;;;;;5088930;28;20055;-39
2021/04/06 09:37:20;;;;;;;9.52;2.10;;;4.00;85.70;;;;;;5088440;28;20055;-41
2021/04/06 09:39:57;;;;;;;5.22;1.63;;;3.40;87.80;;;;;;5086510;28;20055;-39
2021/04/06 09:42:24;;;;;;;3.85;1.38;;;2.70;89.70;;;;;;5085259;28;20074;-40
2021/04/06 09:44:51;;;;;;;3.60;1.27;;;2.20;91.70;;;;;;5088517;28;20040;-40
2021/04/06 09:47:21;;;;;;;6.28;2.22;;;2.10;92.30;;;;;;5088717;28;20048;-39
2021/04/06 09:49:54;;;;;;;6.57;1.98;;;2.10;92.90;;;;;;5086086;28;20047;-39
2021/04/06 09:52:25;;;;;;;6.18;1.95;;;2.20;93.20;;;;;;5081060;28;20132;-38
2021/04/06 09:55:05;;;;;;;6.10;1.92;;;2.10;92.50;;;;;;5079823;28;20043;-38
2021/04/06 09:57:54;;;;;;;6.38;1.70;;;2.30;92.60;;;;;;5085261;28;20358;-37
2021/04/06 10:00:28;;;;;;;5.57;1.88;;;3.20;92.70;;;;;;5086816;28;20044;-39
2021/04/06 10:03:04;;;;;;;10.23;5.30;;;4.00;90.40;;;;;;5106243;27;20044;-39
2021/04/06 10:05:34;;;;;;;5.97;2.28;;;5.40;90.20;;;;;;5088090;28;20048;-39
2021/04/06 10:08:06;;;;;;;5.43;1.92;;;6.20;84.90;;;;;;5088917;28;20058;-39
2021/04/06 10:10:34;;;;;;;3.35;1.70;;;6.80;82.60;;;;;;5083137;28;20533;-39
2021/04/06 10:13:01;;;;;;;3.60;1.30;;;7.10;78.20;;;;;;5086289;28;20709;-40
2021/04/06 10:15:31;;;;;;;3.90;1.17;;;7.60;77.80;;;;;;5087906;28;20054;-39
2021/04/06 10:18:09;;;;;;;7.95;1.40;;;7.30;75.40;;;;;;5086100;28;20113;-39
2021/04/06 10:20:46;;;;;;;5.47;1.77;;;7.70;74.10;;;;;;5086755;28;20156;-38
2021/04/06 10:23:15;;;;;;;5.85;1.17;;;7.90;71.90;;;;;;5087434;28;20048;-38
2021/04/06 10:25:46;;;;;;;6.00;1.70;;;8.10;69.30;;;;;;5088901;28;20094;-38
2021/04/06 10:28:24;;;;;;;5.47;1.67;;;8.60;74.80;;;;;;5084839;28;20048;-39
2021/04/06 10:30:59;;;;;;;5.85;1.60;;;8.50;70.30;;;;;;5088513;28;20044;-38
2021/04/06 10:33:32;;;;;;;7.38;1.65;;;8.60;69.30;;;;;;5086628;28;20054;-38
2021/04/06 10:36:04;;;;;;;8.65;2.28;;;8.30;71.10;;;;;;5088116;28;20059;-36
2021/04/06 10:38:39;;;;;;;9.30;1.90;;;8.40;70.20;;;;;;5087336;28;20517;-36
2021/04/06 10:41:11;;;;;;;8.90;1.90;;;8.70;72.70;;;;;;5084413;28;20143;-36
2021/04/06 10:43:40;;;;;;;8.63;2.30;;;8.40;71.80;;;;;;5085684;28;20630;-36
2021/04/06 10:46:20;;;;;;;8.60;2.10;;;8.70;72.10;;;;;;5087564;28;20139;-36
2021/04/06 10:49:05;;;;;;;8.18;2.30;;;8.70;71.60;;;;;;5084583;28;20117;-36
2021/04/06 10:51:38;;;;;;;7.40;2.30;;;8.70;68.20;;;;;;5084279;28;20052;-37
2021/04/06 10:54:17;;;;;;;7.18;2.28;;;8.90;67.30;;;;;;5087793;28;20069;-37
2021/04/06 10:56:55;;;;;;;8.48;2.15;;;8.50;65.30;;;;;;5088458;28;20047;-37
2021/04/06 10:59:32;;;;;;;9.27;2.08;;;9.10;66.70;;;;;;5085701;28;20052;-35
2021/04/06 11:02:04;;;;;;;7.53;1.70;;;9.00;62.00;;;;;;5086051;28;20100;-35
2021/04/06 11:04:44;;;;;;;10.48;4.00;;;9.30;62.20;;;;;;5087411;28;20404;-36
2021/04/06 11:07:27;;;;;;;7.35;2.10;;;9.70;62.50;;;;;;5091966;28;20697;-36
2021/04/06 11:10:03;;;;;;;6.90;2.50;;;9.70;58.60;;;;;;5086584;28;20052;-36
2021/04/06 11:12:33;;;;;;;9.27;1.90;;;10.10;61.50;;;;;;5084998;28;20052;-36
2021/04/06 11:14:59;;;;;;;10.30;2.50;;;9.70;55.50;;;;;;5086691;28;20499;-36
2021/04/06 11:17:26;;;;;;;7.25;2.63;;;9.60;56.20;;;;;;5090173;28;20139;-36
2021/04/06 11:19:56;;;;;;;7.90;2.42;;;9.40;60.00;;;;;;5087731;28;20805;-35
2021/04/06 11:22:22;;;;;;;7.35;1.70;;;8.30;59.40;;;;;;5086157;28;20827;-35
2021/04/06 11:24:54;;;;;;;6.35;1.88;;;6.60;67.40;;;;;;5087802;28;20125;-35
2021/04/06 11:27:21;;;;;;;5.93;1.60;;;5.40;74.20;;;;;;5087871;28;20458;-35
2021/04/06 11:29:49;;;;;;;10.80;1.92;;;4.80;80.40;;;;;;5085529;28;20052;-35
2021/04/06 11:32:19;;;;;;;7.53;1.80;;;4.30;81.40;;;;;;5087087;28;20515;-35
2021/04/06 11:34:48;;;;;;;10.10;1.80;;;4.20;83.60;;;;;;5087589;28;20052;-35
2021/04/06 11:37:15;;;;;;;7.45;1.90;;;4.30;82.80;;;;;;5086904;28;20484;-36
2021/04/06 11:39:44;;;;;;;7.78;2.05;;;4.90;82.80;;;;;;5094629;28;20131;-34
2021/04/06 11:42:12;;;;;;;7.70;1.83;;;6.10;79.10;;;;;;5084545;28;20060;-35
2021/04/06 11:44:40;;;;;;;8.68;1.60;;;7.20;73.90;;;;;;5083543;28;20051;-36
2021/04/06 11:47:09;;;;;;;8.15;2.58;;;8.00;70.30;;;;;;5081726;28;20070;-36
2021/04/06 11:49:38;;;;;;;8.23;2.10;;;8.50;67.00;;;;;;5087192;28;20048;-35
2021/04/06 11:52:06;;;;;;;8.27;1.75;;;8.80;62.00;;;;;;5093388;28;20044;-36
2021/04/06 11:54:35;;;;;;;8.23;1.98;;;8.50;61.30;;;;;;5087621;28;20439;-35
2021/04/06 11:57:04;;;;;;;8.38;2.40;;;8.00;61.80;;;;;;5088718;28;20096;-36
2021/04/06 11:59:33;;;;;;;9.52;2.05;;;7.40;64.10;;;;;;5076171;28;20060;-35
2021/04/06 12:01:59;;;;;;;7.38;2.10;;;7.10;65.30;;;;;;5084581;28;20051;-35
2021/04/06 12:04:29;;;;;;;9.30;1.92;;;6.80;65.40;;;;;;5083296;28;20100;-35
2021/04/06 12:06:55;;;;;;;12.43;2.72;;;6.50;64.40;;;;;;5074281;28;20059;-35
2021/04/06 12:09:23;;;;;;;8.88;2.13;;;6.30;66.00;;;;;;5086500;28;20056;-35
2021/04/06 12:11:52;;;;;;;9.57;2.30;;;6.30;66.00;;;;;;5085457;28;20047;-35
2021/04/06 12:14:18;;;;;;;9.20;2.60;;;6.30;67.80;;;;;;5086824;28;20781;-35
2021/04/06 12:16:52;;;;;;;10.77;2.30;;;6.10;68.60;;;;;;5085080;28;20563;-35
2021/04/06 12:19:18;;;;;;;9.65;2.63;;;5.90;68.40;;;;;;5083003;28;20105;-35
2021/04/06 12:21:51;;;;;;;10.07;2.67;;;5.80;69.40;;;;;;5084282;28;20047;-35
2021/04/06 12:24:22;;;;;;;12.25;3.10;;;5.60;70.60;;;;;;5087135;28;20074;-35
2021/04/06 12:26:55;;;;;;;10.93;2.67;;;5.60;70.20;;;;;;5086670;28;20047;-35
2021/04/06 12:29:28;;;;;;;8.75;2.55;;;5.80;71.90;;;;;;5085192;28;20578;-35
2021/04/06 12:31:57;;;;;;;7.47;2.17;;;5.20;73.90;;;;;;5066079;28;20057;-35
2021/04/06 12:34:25;;;;;;;9.50;2.05;;;4.80;74.90;;;;;;5067699;28;20048;-35
2021/04/06 12:36:53;;;;;;;8.73;2.17;;;4.40;76.10;;;;;;5079394;28;20160;-35
2021/04/06 12:39:25;;;;;;;12.00;2.13;;;4.40;77.70;;;;;;5069034;28;20675;-34
2021/04/06 12:41:53;;;;;;;8.55;1.92;;;4.30;79.20;;;;;;5073741;28;20050;-34
2021/04/06 12:44:21;;;;;;;9.88;3.25;;;4.40;79.90;;;;;;5086719;28;20048;-35
2021/04/06 12:46:56;;;;;;;7.13;1.93;;;4.80;79.10;;;;;;5086624;28;20067;-35
2021/04/06 12:49:23;;;;;;;9.48;2.00;;;5.80;78.30;;;;;;5087062;28;20063;-35
2021/04/06 12:51:54;;;;;;;6.10;1.58;;;5.80;74.10;;;;;;5088570;28;20044;-35
2021/04/06 12:54:28;;;;;;;12.23;2.90;;;5.60;74.50;;;;;;5086527;28;20044;-35
2021/04/06 12:56:54;;;;;;;8.68;1.92;;;5.50;75.30;;;;;;5090572;28;20097;-35
2021/04/06 12:59:25;;;;;;;9.10;2.13;;;5.20;74.10;;;;;;5091415;28;20056;-34
2021/04/06 13:01:54;;;;;;;9.70;2.38;;;5.10;76.40;;;;;;5089773;28;20351;-35
2021/04/06 13:04:25;;;;;;;12.05;2.88;;;5.00;75.90;;;;;;5090293;28;20059;-35
2021/04/06 13:06:54;;;;;;;12.45;3.70;;;5.50;77.10;;;;;;5089829;28;20044;-36
2021/04/06 13:09:21;;;;;;;10.00;2.92;;;6.60;73.90;;;;;;5089302;28;20441;-36
2021/04/06 13:11:49;;;;;;;8.18;2.00;;;8.00;71.40;;;;;;5090701;28;20664;-35
2021/04/06 13:14:29;;;;;;;9.65;2.58;;;8.90;67.50;;;;;;5090437;28;20150;-35
2021/04/06 13:16:59;;;;;;;10.60;2.42;;;9.40;64.50;;;;;;5090221;28;20055;-35
2021/04/06 13:19:30;;;;;;;7.78;2.30;;;10.30;59.80;;;;;;5090535;28;20055;-35
2021/04/06 13:21:59;;;;;;;7.60;2.23;;;10.40;53.20;;;;;;5089274;28;20143;-35
2021/04/06 13:24:27;;;;;;;8.65;2.13;;;10.50;50.00;;;;;;5089446;28;20401;-35
2021/04/06 13:26:59;;;;;;;20.23;13.90;;;10.20;51.20;;;;;;5089566;28;20083;-38
2021/04/06 13:29:27;;;;;;;10.68;5.15;;;9.60;51.80;;;;;;5089465;28;20066;-38